ETD064 EGLL-OMAA
Flight info
| Callsign | ETD064 |
|---|---|
| Flight time | N/A |
| Altitude | 39000 |
| Route | DET L6 DVR UL9 KONAN DCT KOK UL607 SPI DCT BOMBI DCT TENLO DCT LAMSI DCT SASAL DCT BABIT DCT NISVA DCT RODIP DCT BELGI UT38 VESAR L620 BALMA UR655 CAK UN310 LATEB N310 BASEM R785 ZELAF/N0494F410 R785 RASLI P559 TRF R23 NEVOL N318 TAMRO T503 KSA N687 KINIB Z511 GISRA L681 ORLEK DCT KUPRO N300 KAXOB Q415 UKILI |
| Aircraft | A35K/H-SDE2E3GHIJ3J4J5LM1ORWXY/LB1D1 |
Departure
| Time | N/A |
|---|---|
| Airport | London Heathrow Airport (EGLL) |
Arrival
| Time | 2026-04-28 19:46 |
|---|---|
| Airport | Zayed International Airport (OMAA) |
| Time | Latitude | Longitude | Altitude | Speed | Heading |
|---|---|---|---|---|---|
| 2026-04-28 19:14 | 25.13985 | 52.33516 | 40991 ft | 464 kts | 69° |
| 2026-04-28 19:14 | 25.15450 | 52.40354 | 40989 ft | 461 kts | 88° |
| 2026-04-28 19:15 | 25.15060 | 52.47402 | 40989 ft | 461 kts | 98° |
| 2026-04-28 19:15 | 25.14294 | 52.53274 | 40990 ft | 461 kts | 99° |
| 2026-04-28 19:16 | 25.12642 | 52.61299 | 40994 ft | 467 kts | 112° |
| 2026-04-28 19:16 | 25.09735 | 52.67832 | 40721 ft | 484 kts | 118° |
| 2026-04-28 19:17 | 25.08116 | 52.71101 | 40361 ft | 487 kts | 118° |
| 2026-04-28 19:17 | 25.06537 | 52.74405 | 39763 ft | 487 kts | 115° |
| 2026-04-28 19:17 | 25.05311 | 52.77892 | 39058 ft | 487 kts | 107° |
| 2026-04-28 19:17 | 25.04362 | 52.81425 | 38309 ft | 487 kts | 105° |
| 2026-04-28 19:18 | 25.03491 | 52.85039 | 37538 ft | 487 kts | 104° |
| 2026-04-28 19:18 | 25.02670 | 52.88658 | 36773 ft | 487 kts | 104° |
| 2026-04-28 19:18 | 25.01867 | 52.92288 | 36005 ft | 487 kts | 104° |
| 2026-04-28 19:18 | 25.01065 | 52.95921 | 35226 ft | 487 kts | 104° |
| 2026-04-28 19:19 | 25.00257 | 52.99552 | 34444 ft | 488 kts | 104° |
| 2026-04-28 19:19 | 24.99437 | 53.03203 | 33686 ft | 490 kts | 104° |
| 2026-04-28 19:19 | 24.98609 | 53.06859 | 32911 ft | 492 kts | 104° |
| 2026-04-28 19:19 | 24.97774 | 53.10521 | 32136 ft | 494 kts | 104° |
| 2026-04-28 19:20 | 24.96931 | 53.14189 | 31356 ft | 495 kts | 104° |
| 2026-04-28 19:20 | 24.96081 | 53.17873 | 30579 ft | 497 kts | 104° |
| 2026-04-28 19:20 | 24.95226 | 53.21570 | 29807 ft | 498 kts | 104° |
| 2026-04-28 19:20 | 24.94371 | 53.25268 | 29028 ft | 498 kts | 104° |
| 2026-04-28 19:21 | 24.93519 | 53.28954 | 28251 ft | 494 kts | 104° |
| 2026-04-28 19:21 | 24.92685 | 53.32561 | 27483 ft | 489 kts | 104° |
| 2026-04-28 19:21 | 24.91857 | 53.36141 | 26701 ft | 471 kts | 104° |
| 2026-04-28 19:21 | 24.91034 | 53.39537 | 25924 ft | 448 kts | 108° |
| 2026-04-28 19:22 | 24.89875 | 53.42640 | 25157 ft | 427 kts | 116° |
| 2026-04-28 19:22 | 24.89442 | 53.43623 | 24886 ft | 421 kts | 116° |
| 2026-04-28 19:22 | 24.87251 | 53.48226 | 23614 ft | 394 kts | 118° |
| 2026-04-28 19:22 | 24.85946 | 53.50811 | 22880 ft | 379 kts | 119° |
| 2026-04-28 19:23 | 24.84671 | 53.53299 | 22157 ft | 366 kts | 119° |
| 2026-04-28 19:23 | 24.83438 | 53.55695 | 21416 ft | 354 kts | 119° |
| 2026-04-28 19:23 | 24.82258 | 53.57996 | 20727 ft | 344 kts | 119° |
| 2026-04-28 19:23 | 24.81095 | 53.60274 | 20093 ft | 342 kts | 119° |
| 2026-04-28 19:24 | 24.79928 | 53.62566 | 19502 ft | 343 kts | 119° |
| 2026-04-28 19:24 | 24.78762 | 53.64863 | 18901 ft | 343 kts | 119° |
| 2026-04-28 19:24 | 24.77597 | 53.67159 | 18302 ft | 343 kts | 119° |
| 2026-04-28 19:24 | 24.76434 | 53.69454 | 17702 ft | 343 kts | 119° |
| 2026-04-28 19:25 | 24.75665 | 53.70975 | 17305 ft | 343 kts | 119° |
| 2026-04-28 19:25 | 24.74506 | 53.73257 | 16766 ft | 340 kts | 119° |
| 2026-04-28 19:25 | 24.73354 | 53.75520 | 16232 ft | 337 kts | 119° |
| 2026-04-28 19:25 | 24.71829 | 53.78515 | 15529 ft | 334 kts | 119° |
| 2026-04-28 19:26 | 24.71080 | 53.79986 | 15179 ft | 332 kts | 119° |
| 2026-04-28 19:26 | 24.69967 | 53.82173 | 14657 ft | 320 kts | 119° |
| 2026-04-28 19:26 | 24.68904 | 53.84260 | 14116 ft | 307 kts | 119° |
| 2026-04-28 19:26 | 24.67869 | 53.86291 | 13602 ft | 303 kts | 119° |
| 2026-04-28 19:27 | 24.66844 | 53.88302 | 13064 ft | 300 kts | 119° |
| 2026-04-28 19:27 | 24.65828 | 53.90294 | 12551 ft | 297 kts | 119° |
| 2026-04-28 19:27 | 24.64821 | 53.92269 | 12018 ft | 295 kts | 119° |
| 2026-04-28 19:27 | 24.63929 | 53.94290 | 11505 ft | 292 kts | 109° |
| 2026-04-28 19:28 | 24.63507 | 53.96444 | 11233 ft | 294 kts | 98° |
| 2026-04-28 19:28 | 24.63253 | 53.98662 | 11166 ft | 292 kts | 97° |
| 2026-04-28 19:28 | 24.63015 | 54.00871 | 10939 ft | 290 kts | 97° |
| 2026-04-28 19:28 | 24.62775 | 54.03067 | 10692 ft | 289 kts | 97° |
| 2026-04-28 19:29 | 24.62533 | 54.05252 | 10582 ft | 288 kts | 98° |
| 2026-04-28 19:29 | 24.62368 | 54.06728 | 10711 ft | 289 kts | 98° |
| 2026-04-28 19:29 | 24.62041 | 54.09629 | 11098 ft | 289 kts | 98° |
| 2026-04-28 19:29 | 24.61794 | 54.11822 | 11177 ft | 289 kts | 98° |
| 2026-04-28 19:30 | 24.61546 | 54.14015 | 11180 ft | 289 kts | 98° |
| 2026-04-28 19:30 | 24.61296 | 54.16213 | 11180 ft | 290 kts | 98° |
| 2026-04-28 19:30 | 24.61047 | 54.18413 | 11181 ft | 290 kts | 98° |
| 2026-04-28 19:30 | 24.60796 | 54.20612 | 11179 ft | 290 kts | 98° |
| 2026-04-28 19:31 | 24.60546 | 54.22810 | 11180 ft | 290 kts | 98° |
| 2026-04-28 19:31 | 24.60295 | 54.25012 | 11180 ft | 290 kts | 98° |
| 2026-04-28 19:31 | 24.60044 | 54.27211 | 11182 ft | 290 kts | 98° |
| 2026-04-28 19:31 | 24.59792 | 54.29411 | 11179 ft | 290 kts | 98° |
| 2026-04-28 19:32 | 24.59540 | 54.31609 | 11180 ft | 290 kts | 98° |
| 2026-04-28 19:32 | 24.59230 | 54.33799 | 11182 ft | 290 kts | 102° |
| 2026-04-28 19:32 | 24.58810 | 54.35964 | 11179 ft | 290 kts | 103° |
| 2026-04-28 19:32 | 24.58368 | 54.38123 | 11185 ft | 290 kts | 103° |
| 2026-04-28 19:33 | 24.57930 | 54.40260 | 11181 ft | 290 kts | 103° |
| 2026-04-28 19:33 | 24.57482 | 54.42447 | 11180 ft | 290 kts | 103° |
| 2026-04-28 19:33 | 24.57047 | 54.44580 | 11180 ft | 290 kts | 103° |
| 2026-04-28 19:33 | 24.56607 | 54.46740 | 11179 ft | 290 kts | 103° |
| 2026-04-28 19:34 | 24.56174 | 54.48902 | 11179 ft | 290 kts | 103° |
| 2026-04-28 19:34 | 24.55740 | 54.51064 | 11181 ft | 290 kts | 103° |
| 2026-04-28 19:34 | 24.55305 | 54.53226 | 11181 ft | 290 kts | 103° |
| 2026-04-28 19:34 | 24.54869 | 54.55389 | 11169 ft | 290 kts | 103° |
| 2026-04-28 19:35 | 24.54434 | 54.57554 | 10904 ft | 289 kts | 103° |
| 2026-04-28 19:35 | 24.54001 | 54.59700 | 10593 ft | 288 kts | 103° |
| 2026-04-28 19:35 | 24.53569 | 54.61842 | 10261 ft | 287 kts | 103° |
| 2026-04-28 19:35 | 24.53139 | 54.63977 | 9932 ft | 285 kts | 103° |
| 2026-04-28 19:36 | 24.52710 | 54.66101 | 9604 ft | 284 kts | 103° |
| 2026-04-28 19:36 | 24.52284 | 54.68210 | 9287 ft | 282 kts | 103° |
| 2026-04-28 19:36 | 24.51846 | 54.70310 | 8962 ft | 281 kts | 105° |
| 2026-04-28 19:36 | 24.51092 | 54.72245 | 8561 ft | 279 kts | 122° |
| 2026-04-28 19:37 | 24.49962 | 54.73955 | 8088 ft | 271 kts | 128° |
| 2026-04-28 19:37 | 24.49183 | 54.75034 | 7755 ft | 262 kts | 128° |
| 2026-04-28 19:37 | 24.47717 | 54.77057 | 7124 ft | 251 kts | 128° |
| 2026-04-28 19:37 | 24.46638 | 54.78556 | 6661 ft | 249 kts | 128° |
| 2026-04-28 19:38 | 24.45574 | 54.80044 | 6181 ft | 247 kts | 128° |
| 2026-04-28 19:38 | 24.44517 | 54.81524 | 5702 ft | 245 kts | 128° |
| 2026-04-28 19:38 | 24.43473 | 54.82997 | 5224 ft | 244 kts | 127° |
| 2026-04-28 19:38 | 24.42444 | 54.84438 | 4746 ft | 235 kts | 128° |
| 2026-04-28 19:39 | 24.41452 | 54.85828 | 4259 ft | 227 kts | 128° |
| 2026-04-28 19:39 | 24.40495 | 54.87169 | 3824 ft | 220 kts | 128° |
| 2026-04-28 19:39 | 24.39547 | 54.88498 | 3476 ft | 221 kts | 127° |
| 2026-04-28 19:39 | 24.38603 | 54.89823 | 3128 ft | 219 kts | 127° |
| 2026-04-28 19:40 | 24.37664 | 54.91132 | 2773 ft | 218 kts | 128° |
| 2026-04-28 19:40 | 24.36475 | 54.92129 | 2426 ft | 217 kts | 158° |
| 2026-04-28 19:40 | 24.35011 | 54.92244 | 2221 ft | 210 kts | 191° |
| 2026-04-28 19:40 | 24.33726 | 54.91577 | 2196 ft | 202 kts | 209° |
| 2026-04-28 19:41 | 24.32743 | 54.90502 | 2183 ft | 208 kts | 238° |
| 2026-04-28 19:41 | 24.32439 | 54.88951 | 2181 ft | 212 kts | 271° |
| 2026-04-28 19:41 | 24.32661 | 54.87356 | 2181 ft | 212 kts | 281° |
| 2026-04-28 19:41 | 24.32981 | 54.85781 | 2184 ft | 212 kts | 282° |
| 2026-04-28 19:42 | 24.33313 | 54.84206 | 2181 ft | 212 kts | 282° |
| 2026-04-28 19:42 | 24.33644 | 54.82634 | 2184 ft | 212 kts | 282° |
| 2026-04-28 19:42 | 24.34223 | 54.81144 | 2188 ft | 213 kts | 303° |
| 2026-04-28 19:42 | 24.34812 | 54.80289 | 2185 ft | 212 kts | 310° |
| 2026-04-28 19:43 | 24.36056 | 54.78611 | 2184 ft | 212 kts | 308° |
| 2026-04-28 19:43 | 24.36961 | 54.77329 | 2184 ft | 212 kts | 308° |
| 2026-04-28 19:43 | 24.37833 | 54.76078 | 2129 ft | 197 kts | 308° |
| 2026-04-28 19:43 | 24.38637 | 54.74928 | 1884 ft | 184 kts | 308° |
| 2026-04-28 19:44 | 24.39406 | 54.73841 | 1642 ft | 175 kts | 308° |
| 2026-04-28 19:44 | 24.40134 | 54.72816 | 1414 ft | 165 kts | 308° |
| 2026-04-28 19:44 | 24.40811 | 54.71860 | 1190 ft | 156 kts | 308° |
| 2026-04-28 19:44 | 24.41461 | 54.70940 | 990 ft | 149 kts | 308° |
| 2026-04-28 19:45 | 24.42088 | 54.70049 | 776 ft | 147 kts | 308° |
| 2026-04-28 19:45 | 24.42709 | 54.69160 | 621 ft | 147 kts | 308° |
| 2026-04-28 19:45 | 24.43328 | 54.68274 | 416 ft | 146 kts | 310° |
| 2026-04-28 19:45 | 24.43954 | 54.67402 | 222 ft | 144 kts | 307° |
| 2026-04-28 19:46 | 24.44568 | 54.66534 | 96 ft | 143 kts | 310° |
| 2026-04-28 19:46 | 24.45149 | 54.65747 | 86 ft | 114 kts | 307° |
| 2026-04-28 19:46 | 24.45458 | 54.65302 | 85 ft | 47 kts | 307° |
| 2026-04-28 19:46 | 24.45614 | 54.65017 | 73 ft | 31 kts | 285° |
| 2026-04-28 19:47 | 24.45656 | 54.64818 | 82 ft | 12 kts | 282° |
| 2026-04-28 19:47 | 24.45659 | 54.64798 | 83 ft | 2 kts | 280° |
| 2026-04-28 19:47 | 24.45658 | 54.64782 | 81 ft | 1 kts | 251° |
| 2026-04-28 19:47 | 24.45652 | 54.64778 | 81 ft | 1 kts | 216° |
| 2026-04-28 19:48 | 24.45627 | 54.64786 | 86 ft | 6 kts | 152° |
| 2026-04-28 19:48 | 24.45585 | 54.64823 | 84 ft | 10 kts | 133° |
| 2026-04-28 19:48 | 24.45531 | 54.64892 | 84 ft | 14 kts | 129° |
| 2026-04-28 19:48 | 24.45517 | 54.64909 | 86 ft | 2 kts | 140° |
| 2026-04-28 19:49 | 24.45474 | 54.64915 | 86 ft | 10 kts | 180° |
| 2026-04-28 19:49 | 24.45401 | 54.64941 | 86 ft | 13 kts | 142° |
| 2026-04-28 19:49 | 24.45322 | 54.64994 | 86 ft | 15 kts | 176° |
| 2026-04-28 19:49 | 24.45221 | 54.64986 | 85 ft | 14 kts | 151° |
| 2026-04-28 19:50 | 24.45115 | 54.64964 | 87 ft | 4 kts | 219° |
| 2026-04-28 19:50 | 24.45098 | 54.64948 | 86 ft | 0 kts | 222° |
| 2026-04-28 19:50 | 24.45097 | 54.64947 | 86 ft | 0 kts | 223° |